EYKA

Kaunas International Airport

Kaunas, Lithuania
METAR EYKA 180020Z AUTO 10002KT 7000 NCD 04/03 Q1022
Observed Flight Rules
Oct-18 @ 00:20 UTC (24 minutes ago) Marginal Visual Flight Rules
Wind Visibility Clouds
100° at 2 knots 7,001 meters
  • Clear skies
Temperatures Readings
Current 4°C / 39°F
Dewpoint 3°C / 37°F
Humidity 93%
Altimeter 30.18" Hg
Pressure 1022 hPa
Elevation 77
METAR EYKA 180020Z AUTO 10002KT 7000 NCD 04/03 Q1022
Observed Flight Rules
Oct-18 @ 00:20 UTC
(24 minutes ago)
MVFR
Wind Visibility
100° at 2 knots 7,001 meters
Clouds
  • Clear skies
Temperature Dewpoint
4°C / 39°F 3°C / 37°F
Humidity Altimeter Pressure
93% 30.18" Hg 1022 hPa